Time;durP1;ratioP1;P1;durP2;ratioP2;P2;SDS_P1;SDS_P2;PMS_P1;PMS_P2;Temp;Humidity;BMP_temperature;BMP_pressure;BME280_temperature;BME280_humidity;BME280_pressure;Samples;Min_cycle;Max_cycle;Signal;HPM_P1;HPM_P2
2022/05/26 00:02:05;;;;;;;2.20;1.10;;;15.50;99.90;;;-144.05;54.88;125687.94;4982557;28;20031;-87
2022/05/26 00:04:31;;;;;;;1.40;1.20;;;15.50;99.90;;;-144.05;54.63;125687.94;4981021;28;20030;-86
2022/05/26 00:06:58;;;;;;;4.90;1.40;;;15.60;99.90;;;-144.05;55.08;125687.94;4977710;28;20035;-88
2022/05/26 00:09:25;;;;;;;1.58;0.88;;;15.50;99.90;;;-144.05;55.02;125687.94;4978965;28;20033;-87
2022/05/26 00:11:51;;;;;;;2.60;0.90;;;15.50;99.90;;;-144.05;55.09;125687.94;4977709;28;20027;-88
2022/05/26 00:14:17;;;;;;;3.42;1.48;;;15.40;99.90;;;-144.05;55.77;125687.94;4978645;28;20073;-89
2022/05/26 00:16:49;;;;;;;1.35;1.05;;;15.50;99.90;;;-144.05;56.25;125687.94;4977167;28;20038;-87
2022/05/26 00:19:19;;;;;;;5.95;1.42;;;15.50;99.90;;;-144.05;56.27;125687.94;4977360;28;20431;-88
2022/05/26 00:21:49;;;;;;;2.22;1.10;;;15.40;99.90;;;-144.05;56.97;125687.94;4977766;28;20034;-88
2022/05/26 00:24:18;;;;;;;6.28;1.40;;;15.30;99.90;;;-144.05;57.18;125687.94;4977927;28;20055;-88
2022/05/26 00:26:46;;;;;;;4.15;1.05;;;15.40;99.90;;;-144.05;57.24;125687.94;4977022;28;20117;-87
2022/05/26 00:29:12;;;;;;;3.78;1.20;;;15.30;99.90;;;-144.05;57.19;125687.94;4977210;28;20398;-88
2022/05/26 00:31:39;;;;;;;3.42;1.10;;;15.30;99.90;;;-144.05;57.67;125687.94;4993156;28;20077;-85
2022/05/26 00:34:05;;;;;;;4.80;1.83;;;15.30;99.90;;;-144.05;58.04;125687.94;4993194;28;20027;-86
2022/05/26 00:36:44;;;;;;;6.28;1.58;;;15.30;99.90;;;-144.05;57.97;125687.94;4978900;28;20070;-85
2022/05/26 00:39:22;;;;;;;3.05;1.48;;;15.30;99.90;;;-144.05;58.12;125687.94;4993543;28;20138;-86
2022/05/26 00:41:56;;;;;;;1.98;1.08;;;15.20;99.90;;;-144.05;58.30;125687.94;4978211;28;20121;-89
2022/05/26 00:44:25;;;;;;;4.55;1.38;;;15.20;99.90;;;-144.05;58.60;125687.94;4993728;28;20472;-87
2022/05/26 00:47:04;;;;;;;3.90;1.30;;;15.30;99.90;;;-144.05;58.31;125687.94;4978209;28;20035;-86
2022/05/26 00:49:45;;;;;;;2.58;1.40;;;15.20;99.90;;;-144.05;58.53;125687.94;4977435;28;20046;-86
2022/05/26 00:52:49;;;;;;;2.30;1.42;;;15.20;99.90;;;-144.05;58.33;125687.94;4978492;28;20023;-86
2022/05/26 00:55:26;;;;;;;4.43;1.40;;;15.20;99.90;;;-144.05;58.38;125687.94;4994415;28;20035;-86
2022/05/26 00:58:14;;;;;;;4.13;1.30;;;15.20;99.90;;;-144.05;58.62;125687.94;4979668;28;20039;-88
2022/05/26 01:00:41;;;;;;;3.08;1.20;;;15.20;99.90;;;-144.05;58.94;125687.94;4978175;28;20376;-88
2022/05/26 01:03:39;;;;;;;5.20;1.55;;;15.20;99.90;;;-144.05;58.66;125687.94;4992652;28;20031;-87
2022/05/26 01:06:18;;;;;;;3.28;1.00;;;15.20;99.90;;;-144.05;59.20;125687.94;4976312;28;20027;-87
2022/05/26 01:08:58;;;;;;;2.42;1.63;;;15.10;99.90;;;-144.05;59.17;125687.94;4976189;28;20031;-87
2022/05/26 01:11:32;;;;;;;3.10;0.98;;;15.10;99.90;;;-144.05;59.14;125687.94;4978167;28;20080;-87
2022/05/26 01:14:38;;;;;;;2.67;1.23;;;15.20;99.90;;;-144.05;59.18;125687.94;4975887;28;20031;-86
2022/05/26 01:18:04;;;;;;;5.93;1.20;;;15.10;99.90;;;-144.05;59.19;125687.94;4984715;28;20059;-89
2022/05/26 01:21:08;;;;;;;2.42;0.90;;;15.10;99.90;;;-144.05;58.92;125687.94;4976163;28;20035;-88
2022/05/26 01:24:05;;;;;;;3.25;1.10;;;15.10;99.90;;;-144.05;59.43;125687.94;4976402;28;20042;-86
2022/05/26 01:27:17;;;;;;;3.78;1.20;;;15.10;99.90;;;-144.05;59.48;125687.94;4991408;28;20097;-84
2022/05/26 01:30:09;;;;;;;2.35;0.98;;;15.10;99.90;;;-144.05;59.53;125687.94;4974554;28;20042;-86
2022/05/26 01:33:02;;;;;;;3.25;1.17;;;15.00;99.90;;;-144.05;59.38;125687.94;4991182;28;20348;-88
2022/05/26 01:36:05;;;;;;;2.55;1.42;;;15.00;99.90;;;-144.05;59.39;125687.94;4991615;28;20030;-86
2022/05/26 01:38:57;;;;;;;3.53;1.08;;;15.00;99.90;;;-144.05;59.63;125687.94;4975318;28;20045;-86
2022/05/26 01:41:51;;;;;;;9.80;1.77;;;15.00;99.90;;;-144.05;59.62;125687.94;4974871;28;20117;-85
2022/05/26 01:45:23;;;;;;;2.63;1.30;;;15.00;99.90;;;-144.05;60.12;125687.94;4975465;28;20091;-87
2022/05/26 01:48:10;;;;;;;1.83;1.10;;;15.00;99.90;;;-144.05;59.58;125687.94;4963951;28;20406;-87
2022/05/26 01:51:57;;;;;;;4.88;1.30;;;15.10;99.90;;;-144.05;60.18;125687.94;4975907;28;20031;-83
2022/05/26 01:54:45;;;;;;;4.38;1.38;;;15.00;99.90;;;-144.05;60.32;125687.94;4976826;28;20066;-85
2022/05/26 01:57:30;;;;;;;3.47;1.40;;;15.00;99.90;;;-144.05;60.29;125687.94;4975934;28;20058;-88
2022/05/26 02:00:09;;;;;;;2.33;1.15;;;15.00;99.90;;;-144.05;60.47;125687.94;4976735;28;20027;-84
2022/05/26 02:03:04;;;;;;;2.78;1.55;;;15.00;99.90;;;-144.05;60.58;125687.94;4977476;28;20031;-86
2022/05/26 02:05:54;;;;;;;5.50;1.88;;;15.00;99.90;;;-144.05;60.87;125687.94;4975360;28;20035;-85
2022/05/26 02:08:36;;;;;;;5.07;1.50;;;15.00;99.90;;;-144.05;60.93;125687.94;4976298;28;20050;-86
2022/05/26 02:11:15;;;;;;;2.65;1.30;;;15.00;99.90;;;-144.05;60.92;125687.94;4977085;28;20026;-86
2022/05/26 02:14:19;;;;;;;4.38;1.40;;;15.00;99.90;;;-144.05;61.13;125687.94;4977080;28;20051;-87
2022/05/26 02:17:00;;;;;;;3.47;1.60;;;15.00;99.90;;;-144.05;61.28;125687.94;4976932;28;20050;-86
2022/05/26 02:19:35;;;;;;;3.65;1.23;;;15.00;99.90;;;-144.05;61.65;125687.94;4990751;28;20038;-86
2022/05/26 02:22:31;;;;;;;5.18;1.70;;;15.00;99.90;;;-144.05;62.04;125687.94;4999307;28;20077;-84
2022/05/26 02:25:10;;;;;;;2.93;1.90;;;15.00;99.90;;;-144.05;61.75;125687.94;4977377;28;20039;-84
2022/05/26 02:27:38;;;;;;;3.95;1.50;;;15.00;99.90;;;-144.05;61.89;125687.94;4979237;28;20754;-85
2022/05/26 02:30:07;;;;;;;4.05;1.60;;;15.00;99.90;;;-144.05;61.99;125687.94;4979593;28;20430;-85
2022/05/26 02:32:44;;;;;;;2.05;1.38;;;15.00;99.90;;;-144.05;62.62;125687.94;4980995;28;20031;-87
2022/05/26 02:35:35;;;;;;;4.68;1.50;;;15.00;99.90;;;-144.05;62.66;125687.94;4982811;28;20061;-85
2022/05/26 02:38:22;;;;;;;3.00;1.73;;;14.90;99.90;;;-144.05;62.41;125687.94;4980106;28;20034;-87
2022/05/26 02:40:51;;;;;;;8.93;1.90;;;15.00;99.90;;;-144.05;62.45;125687.94;4980909;28;20106;-86
2022/05/26 02:43:26;;;;;;;2.58;1.55;;;14.90;99.90;;;-144.05;62.96;125687.94;4979240;28;20062;-88
2022/05/26 02:46:17;;;;;;;5.30;1.42;;;14.90;99.90;;;-144.05;62.93;125687.94;4980312;28;20403;-84
2022/05/26 02:49:34;;;;;;;1.75;1.38;;;14.90;99.90;;;-144.05;62.82;125687.94;4994679;28;20027;-85
2022/05/26 02:52:56;;;;;;;7.75;2.17;;;14.90;99.90;;;-144.05;63.08;125687.94;4978605;28;20030;-87
2022/05/26 02:56:02;;;;;;;3.55;1.77;;;14.90;99.90;;;-144.05;63.25;125687.94;4979937;28;20042;-87
2022/05/26 02:59:05;;;;;;;2.67;1.27;;;14.90;99.90;;;-144.05;63.12;125687.94;4994448;28;20058;-86
2022/05/26 03:01:58;;;;;;;3.78;1.70;;;14.90;99.90;;;-144.05;62.91;125687.94;4980117;28;20026;-87
2022/05/26 03:04:57;;;;;;;5.30;1.42;;;14.90;99.90;;;-144.05;63.20;125687.94;4979429;28;20031;-86
2022/05/26 03:07:31;;;;;;;4.72;1.75;;;15.00;99.90;;;-144.05;63.54;125687.94;4978443;28;20033;-85
2022/05/26 03:10:01;;;;;;;4.85;1.55;;;14.90;99.90;;;-144.05;63.69;125687.94;4977913;28;20027;-84
2022/05/26 03:12:35;;;;;;;2.67;1.60;;;15.00;99.90;;;-144.05;63.62;125687.94;4977979;28;20031;-86
2022/05/26 03:15:06;;;;;;;3.72;1.70;;;14.90;99.90;;;-144.05;63.99;125687.94;4979560;28;20110;-86
2022/05/26 03:17:33;;;;;;;2.75;1.52;;;14.80;99.90;;;-144.05;65.21;125687.94;5038364;22;20038;-89
2022/05/26 03:19:58;;;;;;;3.80;1.70;;;14.90;99.90;;;-144.05;65.56;125687.94;4999725;28;20066;-85
2022/05/26 03:22:25;;;;;;;4.60;2.50;;;14.90;99.90;;;-144.05;66.38;125687.94;5010626;28;20038;-86
2022/05/26 03:24:54;;;;;;;5.13;2.22;;;14.80;99.90;;;-144.05;67.32;125687.94;5003903;28;20030;-85
2022/05/26 03:27:20;;;;;;;5.15;2.03;;;14.70;99.90;;;-144.05;67.63;125687.94;4996173;28;20113;-87
2022/05/26 03:29:46;;;;;;;3.47;2.33;;;14.70;99.90;;;-144.05;68.23;125687.94;4978807;28;20118;-86
2022/05/26 03:32:13;;;;;;;3.13;2.42;;;14.70;99.90;;;-144.05;68.95;125687.94;4994554;28;20061;-86
2022/05/26 03:43:04;;;;;;;9.63;2.50;;;14.60;99.90;;;-144.05;68.60;125687.94;4972395;28;20490;-85
2022/05/26 03:45:34;;;;;;;4.90;2.47;;;14.60;99.90;;;-144.05;68.42;125687.94;4998056;28;20387;-87
2022/05/26 03:48:03;;;;;;;5.00;2.95;;;14.60;99.90;;;-144.05;68.11;125687.94;4982314;28;20566;-86
2022/05/26 03:50:29;;;;;;;7.28;3.10;;;14.70;99.90;;;-144.05;68.35;125687.94;4982131;28;20046;-86
2022/05/26 03:52:55;;;;;;;5.32;2.85;;;14.60;99.90;;;-144.05;67.93;125687.94;4994279;28;20487;-88
2022/05/26 03:55:24;;;;;;;4.45;2.90;;;14.70;99.90;;;-144.05;68.40;125687.94;4994151;28;20487;-86
2022/05/26 03:57:50;;;;;;;8.57;3.65;;;14.70;99.90;;;-144.05;68.31;125687.94;4993656;28;20399;-85
2022/05/26 04:00:22;;;;;;;3.53;3.13;;;14.70;99.90;;;-144.05;68.27;125687.94;4977715;28;20126;-84
2022/05/26 04:02:49;;;;;;;5.65;3.03;;;14.70;99.90;;;-144.05;67.58;125687.94;4977233;28;20035;-85
2022/05/26 04:05:16;;;;;;;9.10;3.22;;;14.70;99.90;;;-144.05;67.93;125687.94;4992960;28;20026;-87
2022/05/26 04:07:43;;;;;;;8.32;2.90;;;14.70;99.90;;;-144.05;67.84;125687.94;4992673;28;20079;-86
2022/05/26 04:10:17;;;;;;;6.38;2.90;;;14.80;99.90;;;-144.05;68.30;125687.94;4992486;28;20062;-87
2022/05/26 04:12:43;;;;;;;5.35;2.83;;;14.70;99.90;;;-144.05;68.21;125687.94;4976602;28;20169;-85
2022/05/26 04:15:13;;;;;;;4.22;2.60;;;14.70;99.90;;;-144.05;68.59;125687.94;4976934;28;20137;-86
2022/05/26 04:17:40;;;;;;;6.72;2.55;;;14.70;99.90;;;-144.05;69.01;125687.94;4976044;28;20117;-85
2022/05/26 04:20:12;;;;;;;2.88;2.10;;;14.70;99.90;;;-144.05;69.04;125687.94;4993559;28;20035;-84
2022/05/26 04:22:39;;;;;;;3.00;2.20;;;14.60;99.90;;;-144.05;69.54;125687.94;4993879;28;20023;-84
2022/05/26 04:25:07;;;;;;;6.10;2.60;;;14.60;99.90;;;-144.05;71.04;125687.94;4977212;28;20048;-87
2022/05/26 04:27:34;;;;;;;4.20;2.35;;;14.60;99.90;;;-144.05;74.17;125687.94;4993668;28;20039;-87
2022/05/26 04:30:03;;;;;;;8.15;2.92;;;14.40;99.90;;;-144.05;75.58;125687.94;4977955;28;20026;-86
2022/05/26 04:32:29;;;;;;;5.22;2.40;;;14.30;99.90;;;-144.05;76.49;125687.94;4979728;28;20509;-87
2022/05/26 04:34:55;;;;;;;4.38;2.72;;;14.30;99.90;;;-144.05;78.10;125687.94;4985109;28;20027;-85
2022/05/26 04:37:25;;;;;;;6.30;3.30;;;14.20;99.90;;;-144.05;78.53;125687.94;4982311;28;20023;-85
2022/05/26 04:39:55;;;;;;;6.32;3.10;;;14.10;99.90;;;-144.05;79.80;125687.94;4980784;28;20137;-85
2022/05/26 04:42:24;;;;;;;5.90;3.25;;;14.10;99.90;;;-144.05;79.85;125687.94;4981949;28;20027;-87
2022/05/26 04:44:50;;;;;;;6.82;2.95;;;14.10;99.90;;;-144.05;79.99;125687.94;4980417;28;20030;-84
2022/05/26 04:47:17;;;;;;;6.28;3.03;;;14.10;99.90;;;-144.05;80.05;125687.94;4978610;28;20486;-83
2022/05/26 04:49:44;;;;;;;3.10;2.47;;;14.00;99.90;;;-144.05;80.69;125687.94;4978484;28;20035;-86
2022/05/26 04:52:19;;;;;;;7.35;3.40;;;14.10;99.90;;;-144.05;81.26;125687.94;4978114;28;20069;-83
2022/05/26 04:54:45;;;;;;;6.45;3.28;;;14.00;99.90;;;-144.05;80.76;125687.94;4981370;28;20114;-88
2022/05/26 04:57:14;;;;;;;6.05;3.33;;;14.10;99.90;;;-144.05;81.12;125687.94;4978950;28;20461;-84
2022/05/26 04:59:41;;;;;;;5.65;3.45;;;14.10;99.90;;;-144.05;80.92;125687.94;4980898;28;20062;-86
2022/05/26 05:02:13;;;;;;;5.20;3.72;;;14.10;99.90;;;-144.05;80.87;125687.94;4979217;28;20030;-86
2022/05/26 05:04:42;;;;;;;4.60;3.85;;;14.10;99.90;;;-144.05;81.10;125687.94;4980263;28;20034;-86
2022/05/26 05:07:09;;;;;;;7.47;3.95;;;14.10;99.90;;;-144.05;81.13;125687.94;4978771;28;20526;-86
2022/05/26 05:09:38;;;;;;;9.80;4.13;;;14.10;99.90;;;-144.05;80.37;125687.94;4978800;28;20422;-85
2022/05/26 05:12:10;;;;;;;7.00;4.18;;;14.20;99.90;;;-144.05;79.93;125687.94;4960462;28;20027;-85
2022/05/26 05:14:48;;;;;;;4.55;4.03;;;14.30;99.90;;;-144.05;80.05;125687.94;4958361;28;20055;-85
2022/05/26 05:17:18;;;;;;;7.05;3.60;;;14.40;99.90;;;-144.05;79.64;125687.94;4973973;28;20051;-87
2022/05/26 05:19:45;;;;;;;6.35;3.83;;;14.40;99.90;;;-144.05;79.50;125687.94;4957139;28;20063;-86
2022/05/26 05:22:40;;;;;;;5.13;3.90;;;14.40;99.90;;;-144.05;79.50;125687.94;4956825;28;20030;-88
2022/05/26 05:25:32;;;;;;;5.93;3.95;;;14.40;99.90;;;-144.05;79.97;125687.94;4956248;28;20050;-87
2022/05/26 05:28:09;;;;;;;9.18;5.30;;;14.40;99.90;;;-144.05;80.05;125687.94;4956578;28;20050;-83
2022/05/26 05:30:52;;;;;;;11.75;5.70;;;14.40;99.90;;;-144.05;80.34;125687.94;4956378;28;20039;-85
2022/05/26 05:33:46;;;;;;;8.65;6.57;;;14.40;99.90;;;-144.05;80.71;125687.94;4956384;28;20038;-87
2022/05/26 05:36:27;;;;;;;11.88;7.70;;;14.40;99.90;;;-144.05;80.53;125687.94;4956882;28;20035;-86
2022/05/26 05:38:56;;;;;;;14.73;9.88;;;14.50;99.90;;;-144.05;79.57;125687.94;4957292;28;20031;-87
2022/05/26 05:41:22;;;;;;;14.32;8.57;;;14.50;99.90;;;-144.05;79.55;125687.94;4956346;28;20057;-86
2022/05/26 05:43:49;;;;;;;13.63;10.35;;;14.60;99.90;;;-144.05;79.47;125687.94;4957034;28;20049;-86
2022/05/26 05:46:15;;;;;;;13.90;10.40;;;14.60;99.90;;;-144.05;79.40;125687.94;4956029;28;20035;-85
2022/05/26 05:48:44;;;;;;;18.70;10.88;;;14.60;99.90;;;-144.05;79.27;125687.94;4957428;28;20070;-88
2022/05/26 05:51:12;;;;;;;18.10;12.20;;;14.70;99.90;;;-144.05;79.06;125687.94;4957572;28;20031;-87
2022/05/26 05:53:38;;;;;;;19.48;12.73;;;14.70;99.90;;;-144.05;78.96;125687.94;4955694;28;20054;-88
2022/05/26 05:56:05;;;;;;;15.90;12.63;;;14.70;99.90;;;-144.05;79.25;125687.94;4958314;28;20042;-87
2022/05/26 05:58:31;;;;;;;18.70;12.77;;;14.70;99.90;;;-144.05;78.75;125687.94;4971769;28;20038;-84
2022/05/26 06:00:57;;;;;;;22.33;14.15;;;14.80;99.90;;;-144.05;78.05;125687.94;4974114;28;20108;-83
2022/05/26 06:03:23;;;;;;;20.27;13.15;;;14.80;99.90;;;-144.05;78.69;125687.94;4988959;28;20035;-86
2022/05/26 06:05:49;;;;;;;22.13;13.65;;;14.80;99.90;;;-144.05;78.55;125687.94;4968905;28;20069;-86
2022/05/26 06:08:15;;;;;;;21.17;14.55;;;14.80;99.90;;;-144.05;78.16;125687.94;4957797;28;20038;-87
2022/05/26 06:10:41;;;;;;;22.23;14.02;;;14.80;99.90;;;-144.05;78.11;125687.94;4964118;28;20034;-86
2022/05/26 06:13:07;;;;;;;22.63;12.48;;;14.80;99.90;;;-144.05;77.36;125687.94;4992746;28;20031;-87
2022/05/26 06:15:33;;;;;;;20.67;13.63;;;14.90;99.90;;;-144.05;77.14;125687.94;4979964;28;20505;-86
2022/05/26 06:17:59;;;;;;;18.35;12.27;;;15.10;99.90;;;-144.05;76.42;125687.94;4983057;28;20449;-85
2022/05/26 06:20:26;;;;;;;19.20;12.30;;;15.30;99.90;;;-144.05;75.53;125687.94;4978685;28;20031;-86
2022/05/26 06:22:52;;;;;;;15.75;10.80;;;15.50;99.90;;;-144.05;74.15;125687.94;4979161;28;20034;-84
2022/05/26 06:25:20;;;;;;;18.52;11.77;;;15.70;99.90;;;-144.05;73.07;125687.94;4992790;28;20436;-87
2022/05/26 06:30:32;;;;;;;20.02;10.90;;;15.90;99.90;;;-144.05;72.34;125687.94;4977962;28;20301;-87
2022/05/26 06:38:41;;;;;;;16.02;10.27;;;15.90;99.90;;;-144.05;72.47;125687.94;4976876;28;20089;-85
2022/05/26 06:44:03;;;;;;;17.35;9.70;;;15.80;99.90;;;-144.05;72.79;125687.94;4976837;28;20042;-85
2022/05/26 06:46:29;;;;;;;16.80;10.30;;;15.70;99.90;;;-144.05;72.71;125687.94;4976296;28;20023;-86
2022/05/26 06:48:55;;;;;;;18.65;10.07;;;15.80;99.90;;;-144.05;72.67;125687.94;4977770;28;20031;-86
2022/05/26 06:51:26;;;;;;;23.02;12.20;;;15.80;99.90;;;-144.05;72.80;125687.94;4978262;28;20035;-87
2022/05/26 06:53:53;;;;;;;18.65;10.38;;;15.70;99.90;;;-144.05;72.83;125687.94;4982707;28;20035;-86
2022/05/26 06:56:19;;;;;;;15.15;10.02;;;15.80;99.90;;;-144.05;72.07;125687.94;4979609;28;20035;-85
2022/05/26 06:58:46;;;;;;;23.98;11.48;;;15.90;99.90;;;-144.05;71.91;125687.94;4991760;28;20545;-85
2022/05/26 07:01:15;;;;;;;21.25;10.90;;;15.80;99.90;;;-144.05;72.22;125687.94;4974289;28;20113;-85
2022/05/26 07:03:43;;;;;;;17.63;11.27;;;15.80;99.90;;;-144.05;72.28;125687.94;4973908;28;20026;-85
2022/05/26 07:06:27;;;;;;;20.65;11.65;;;15.80;99.90;;;-144.05;71.53;125687.94;4973915;28;20048;-86
2022/05/26 07:08:54;;;;;;;18.95;11.90;;;15.90;99.90;;;-144.05;71.69;125687.94;4973832;28;20032;-85
2022/05/26 07:11:20;;;;;;;17.77;12.90;;;16.00;99.90;;;-144.05;71.08;125687.94;4964213;28;20035;-85
2022/05/26 07:13:47;;;;;;;22.42;13.10;;;16.00;99.90;;;-144.05;70.93;125687.94;4958977;28;20039;-86
2022/05/26 07:16:15;;;;;;;14.13;11.52;;;16.10;99.90;;;-144.05;70.49;125687.94;4959567;28;20038;-84
2022/05/26 07:18:42;;;;;;;18.02;11.43;;;16.20;99.90;;;-144.05;69.99;125687.94;4961381;28;20404;-85
2022/05/26 07:21:10;;;;;;;16.52;12.55;;;16.50;99.90;;;-144.05;67.66;125687.94;4962063;28;20040;-87
2022/05/26 07:23:36;;;;;;;21.45;11.90;;;16.60;99.90;;;-144.05;67.68;125687.94;4961353;28;20055;-86
2022/05/26 07:26:10;;;;;;;23.13;12.02;;;16.50;99.90;;;-144.05;68.24;125687.94;4962980;28;20038;-87
2022/05/26 07:28:40;;;;;;;22.80;12.05;;;16.40;99.90;;;-144.05;69.26;125687.94;4960539;28;20027;-85
2022/05/26 07:31:10;;;;;;;20.15;13.18;;;16.30;99.90;;;-144.05;68.40;125687.94;4976192;28;20038;-85
2022/05/26 07:33:36;;;;;;;21.00;13.75;;;16.50;99.90;;;-144.05;67.57;125687.94;4960829;28;20031;-85
2022/05/26 07:36:03;;;;;;;19.45;12.18;;;16.70;99.90;;;-144.05;65.86;125687.94;4960108;28;20041;-86
2022/05/26 07:41:26;;;;;;;17.98;11.35;;;18.30;99.90;;;-144.05;58.51;125687.94;4962472;29;20427;-85
2022/05/26 07:43:59;;;;;;;21.13;11.07;;;19.10;99.90;;;-144.05;57.04;125687.94;4961898;28;20561;-88
2022/05/26 07:46:26;;;;;;;19.33;11.82;;;19.10;99.90;;;-144.05;57.09;125687.94;4960449;28;20027;-87
2022/05/26 07:48:54;;;;;;;20.15;11.13;;;19.10;99.90;;;-144.05;55.60;125687.94;4979959;28;20042;-89
2022/05/26 07:51:25;;;;;;;17.30;10.57;;;19.40;99.90;;;-144.05;55.73;125687.94;4964618;28;20050;-83
2022/05/26 07:54:00;;;;;;;16.58;10.23;;;19.40;99.90;;;-144.05;56.44;125687.94;4977239;28;20031;-86
2022/05/26 07:56:42;;;;;;;17.40;11.27;;;19.10;99.90;;;-144.05;57.22;125687.94;4963018;28;20094;-87
2022/05/26 07:59:11;;;;;;;19.63;10.40;;;18.80;99.90;;;-144.05;57.70;125687.94;4960673;28;20027;-89
2022/05/26 08:01:38;;;;;;;16.50;9.52;;;18.50;99.90;;;-144.05;57.25;125687.94;4961271;28;20495;-85
2022/05/26 08:04:07;;;;;;;17.05;10.63;;;18.70;99.90;;;-144.05;55.28;125687.94;4959619;28;20050;-88
2022/05/26 08:06:35;;;;;;;16.05;10.20;;;19.10;99.90;;;-144.05;52.10;125687.94;4960231;28;20027;-85
2022/05/26 08:09:02;;;;;;;14.45;8.40;;;19.90;99.90;;;-144.05;50.65;125687.94;4976752;28;20054;-87
2022/05/26 08:11:28;;;;;;;13.15;7.82;;;20.60;99.90;;;-144.05;48.99;125687.94;4974256;28;20045;-89
2022/05/26 08:13:54;;;;;;;13.52;8.02;;;20.90;99.90;;;-144.05;48.83;125687.94;4980281;28;20035;-88
2022/05/26 08:16:23;;;;;;;13.20;8.23;;;21.20;99.90;;;-144.05;47.77;125687.94;4979533;28;20130;-87
2022/05/26 08:23:23;;;;;;;15.25;8.32;;;20.40;99.90;;;-144.05;53.47;125687.94;4983348;28;20109;-84
2022/05/26 08:25:51;;;;;;;12.73;8.00;;;19.60;99.90;;;-144.05;53.46;125687.94;4982950;28;20027;-89
2022/05/26 08:28:17;;;;;;;15.93;8.95;;;19.20;99.90;;;-144.05;54.11;125687.94;5006562;22;20049;-86
2022/05/26 08:31:24;;;;;;;14.15;8.38;;;18.90;99.90;;;-144.05;53.99;125687.94;4981262;28;20125;-88
2022/05/26 08:33:51;;;;;;;15.35;8.15;;;18.60;99.90;;;-144.05;55.26;125687.94;4974514;28;20050;-86
2022/05/26 08:36:26;;;;;;;12.55;8.10;;;18.20;99.90;;;-144.05;56.58;125687.94;4986863;28;20031;-88
2022/05/26 08:38:55;;;;;;;15.00;7.70;;;18.00;99.90;;;-144.05;55.74;125687.94;4979105;28;20042;-89
2022/05/26 08:41:36;;;;;;;13.73;7.78;;;18.00;99.90;;;-144.05;56.90;125687.94;4994483;28;20038;-88
2022/05/26 08:44:37;;;;;;;15.55;8.68;;;18.00;99.90;;;-144.05;56.62;125687.94;4979464;28;20030;-88
2022/05/26 08:47:22;;;;;;;18.80;9.35;;;18.10;99.90;;;-144.05;57.59;125687.94;4999910;28;20031;-85
2022/05/26 08:50:21;;;;;;;14.20;9.60;;;18.10;99.90;;;-144.05;57.13;125687.94;4994655;28;20372;-86
2022/05/26 08:52:56;;;;;;;15.85;9.32;;;17.90;99.90;;;-144.05;58.19;125687.94;4999093;28;20090;-87
2022/05/26 08:55:43;;;;;;;21.27;10.50;;;17.70;99.90;;;-144.05;58.70;125687.94;4980322;28;20407;-84
2022/05/26 08:58:20;;;;;;;14.57;9.52;;;17.60;99.90;;;-144.05;59.36;125687.94;4979370;28;20187;-84
2022/05/26 09:00:51;;;;;;;15.63;10.60;;;17.40;99.90;;;-144.05;60.30;125687.94;4978205;28;20042;-85
2022/05/26 09:03:34;;;;;;;15.90;9.57;;;17.30;99.90;;;-144.05;61.84;125687.94;4980848;28;20041;-85
2022/05/26 09:06:25;;;;;;;14.07;9.38;;;17.00;99.90;;;-144.05;61.10;125687.94;4978085;28;20030;-82
2022/05/26 09:14:30;;;;;;;12.23;6.65;;;19.50;99.90;;;-144.05;52.10;125687.94;4978068;28;20140;-86
2022/05/26 09:17:14;;;;;;;13.88;5.97;;;19.90;99.90;;;-144.05;49.43;125687.94;4979867;28;20109;-85
2022/05/26 09:19:43;;;;;;;10.52;5.70;;;20.10;99.90;;;-144.05;51.44;125687.94;5006144;23;20049;-83
2022/05/26 09:22:50;;;;;;;12.73;6.20;;;19.80;99.90;;;-144.05;50.00;125687.94;4984571;28;20089;-84
2022/05/26 09:29:52;;;;;;;11.40;5.90;;;20.80;99.90;;;-144.05;48.66;125687.94;4993950;28;20060;-86
2022/05/26 09:33:31;;;;;;;10.85;6.05;;;20.60;99.90;;;-144.05;48.16;125687.94;4981749;28;20027;-84
2022/05/26 09:36:40;;;;;;;12.13;5.72;;;20.70;99.90;;;-144.05;47.26;125687.94;4979530;28;20034;-83
2022/05/26 09:39:08;;;;;;;10.00;5.00;;;20.90;99.90;;;-144.05;47.01;125687.94;4981664;28;20037;-83
2022/05/26 09:41:59;;;;;;;10.98;5.40;;;20.80;99.90;;;-144.05;47.55;125687.94;4984268;28;20470;-85
2022/05/26 09:44:55;;;;;;;10.43;4.95;;;20.50;99.90;;;-144.05;48.51;125687.94;4982011;28;20041;-84
2022/05/26 09:48:50;;;;;;;;;;;;;;;;;;;;;
2022/05/26 09:53:00;;;;;;;6.05;4.25;;;19.70;99.90;;;-144.05;49.11;125687.94;4963540;28;20069;-89
2022/05/26 09:56:15;;;;;;;;;;;;;;;;;;;;;
2022/05/26 10:00:12;;;;;;;;;;;;;;;;;;;;;
2022/05/26 10:03:15;;;;;;;10.25;4.63;;;21.20;99.90;;;-144.05;44.80;125687.94;4916852;28;20456;-87
2022/05/26 10:10:13;;;;;;;10.25;4.55;;;22.60;99.90;;;-144.05;41.13;125687.94;4950220;28;20027;-84
2022/05/26 10:13:20;;;;;;;9.35;4.22;;;23.10;95.50;;;-144.05;44.03;125687.94;4975592;28;20031;-84
2022/05/26 10:16:32;;;;;;;9.32;4.15;;;22.50;99.90;;;-144.05;41.82;125687.94;4959435;28;20039;-84
2022/05/26 10:19:31;;;;;;;9.27;4.22;;;22.90;98.10;;;-144.05;41.46;125687.94;4955982;28;20039;-83
2022/05/26 10:22:53;;;;;;;8.88;3.92;;;22.80;95.30;;;-144.05;40.43;125687.94;4955619;28;20032;-83
2022/05/26 10:25:52;;;;;;;10.68;3.72;;;23.10;94.00;;;-144.05;40.88;125687.94;4954626;28;20054;-83
2022/05/26 10:29:09;;;;;;;9.73;3.95;;;22.70;92.40;;;-144.05;42.80;125687.94;4955426;28;20039;-84
2022/05/26 10:32:00;;;;;;;;;;;21.60;95.20;;;-144.05;44.87;125687.94;4956304;28;20035;-84
2022/05/26 10:35:19;;;;;;;10.80;4.07;;;20.60;99.90;;;-144.05;46.78;125687.94;4954874;28;20331;-85
2022/05/26 10:38:26;;;;;;;8.00;4.03;;;20.20;99.90;;;-144.05;45.61;125687.94;4956610;28;20027;-85
2022/05/26 10:41:15;;;;;;;9.35;4.07;;;20.70;99.90;;;-144.05;43.83;125687.94;4956170;28;20094;-88
2022/05/26 10:44:04;;;;;;;8.65;3.35;;;21.20;99.90;;;-144.05;41.99;125687.94;4955232;28;20436;-84
2022/05/26 10:46:37;;;;;;;7.97;3.55;;;21.40;99.90;;;-144.05;42.41;125687.94;4955667;28;20035;-85
2022/05/26 10:49:30;;;;;;;8.23;3.63;;;21.00;97.40;;;-144.05;43.74;125687.94;4974345;28;20035;-82
2022/05/26 10:52:18;;;;;;;11.55;4.07;;;20.50;99.90;;;-144.05;44.82;125687.94;4958948;28;20058;-85
2022/05/26 10:55:12;;;;;;;7.47;3.40;;;19.90;99.90;;;-144.05;46.54;125687.94;4960021;29;20517;-83
2022/05/26 10:58:37;;;;;;;6.82;3.72;;;19.50;99.90;;;-144.05;46.90;125687.94;4959713;28;20063;-81
2022/05/26 11:01:16;;;;;;;7.78;3.50;;;19.20;99.90;;;-144.05;47.78;125687.94;4957486;28;20451;-86
2022/05/26 11:03:53;;;;;;;10.73;4.35;;;19.20;99.90;;;-144.05;47.82;125687.94;4960806;28;20464;-86
2022/05/26 11:06:37;;;;;;;6.28;3.67;;;19.40;99.90;;;-144.05;45.71;125687.94;4958820;28;20496;-84
2022/05/26 11:09:24;;;;;;;7.45;3.50;;;20.10;99.90;;;-144.05;44.20;125687.94;4959519;28;20042;-86
2022/05/26 11:11:59;;;;;;;8.15;3.25;;;20.50;99.90;;;-144.05;42.99;125687.94;4976681;28;20031;-85
2022/05/26 11:17:44;;;;;;;10.27;3.30;;;21.60;98.20;;;-144.05;40.67;125687.94;4980829;28;20084;-87
2022/05/26 11:20:38;;;;;;;6.28;2.25;;;22.40;94.90;;;-144.05;39.62;125687.94;4978595;28;20113;-85
2022/05/26 11:23:06;;;;;;;8.68;3.05;;;22.20;90.60;;;-144.05;39.59;125687.94;4977393;28;20030;-84
2022/05/26 11:25:54;;;;;;;8.13;2.58;;;21.50;87.30;;;-144.05;41.52;125687.94;4977473;28;20069;-86
2022/05/26 11:37:41;;;;;;;5.10;2.95;;;19.80;99.90;;;-144.05;44.63;125687.94;4861402;29;20082;-85
2022/05/26 11:40:13;;;;;;;4.75;2.92;;;19.50;99.90;;;-144.05;44.17;125687.94;4956725;28;20043;-84
2022/05/26 11:42:53;;;;;;;5.95;2.75;;;19.40;99.90;;;-144.05;45.05;125687.94;4978393;28;20023;-84
2022/05/26 12:00:34;;;;;;;8.93;2.45;;;20.40;96.90;;;-144.05;42.94;125687.94;4976451;28;20047;-86